Déline Airport
CYWJ : rendu visible

Aérodrome :











RETROUVEZ-NOUS SUR...

 
LOGIN :

S'inscrire | Disclaimer

   EN    FR    IT 

 









Légende :    VFR   VFR Marginal   IFR   IFR Intensif   IFR Très Intensif
Visi : 
Plafond : 
>= 8 km
>= 3000ft
5 à 8 km
1000 à 3000 ft
1500m à 5 km
500 à 1000 ft
800 à 1500m
200 à 500 ft
< 800m
< 200 ft
Symboles :   Orages  Brouillard  Fortes neiges  Fortes précipitations  Vent > 20 kt






- Altitude de l'aérodrome : 703 ft
- Code IATA : YWJ


CYWJ - Déline

DERNIER METAR :
  • 222000Z VRB02KT 20SM FEW030 FEW060 BKN120 BKN200 M18/M21 A2961 RMK SC1SC1AC3CS2 SLP053

METARs EXPIRÉS :
  • 221938Z VRB02KT 15SM FEW065 SCT110 BKN200 M18/M21 A2960 RMK SC1AC3CS3 SLP050
  • 221900Z 23003KT 180V270 10SM -SN FEW025 SCT035 SCT045 BKN200 M18/M21 A2959 RMK SC1SC1SC1CS4 SLP046
  • 221800Z 26004KT 7SM -SN FEW025 SCT035 BKN045 OVC055 M18/M21 A2957 RMK SC2SC2SC2SC2 SLP040

TAF TAF CYWJ
Valide du 22 à 18h jusqu'au 23 à 00h UTC


221738Z 2218/2224 VRB03KT P6SM SCT020 OVC040
TEMPO 2218/2224 4SM -SN BKN020 OVC040 RMK NXT FCST WILL BE ISSUED AT 241515Z



MET'MAP, la Météo Aéronautique d'un coup d'oeil ! - Copyright ORBIFLY Décembre 2007 - Disclaimer

ORBIFLY MET'MAP TEAM :

Programmation & Développement : Alexandra Zaïnal
Sur une idée originale de : Baudouin d'Aumeries
Assistance à la programmation : Marc-Olivier Méhu
Soutien technique & logistique : Manuel Goepfert

Contact : metmap@orbifly.com




SOURCES & CREDITS :

   NOAA       Earth
Advisory